Airfield :
LOGIN :

Register | Disclaimer

   EN    FR    IT 

 










Legend :    VFR   Marginal VFR   IFR   Intensive IFR   Very Intensive IFR
Visi :
Ceiling :
>= 8 km
>= 3000ft
5 to 8 km
1000 to 3000 ft
1500m to 5 km
500 to 1000 ft
800 to 1500m
200 to 500 ft
< 800m
< 200 ft
Symbols :   Thunderstorms  Fog  Heavy snow  Heavy precipitations  Wind > 20 kt
SIGMETs :     Misc.  Thunderstorms  Icing  Turbulence  Mountain Waves  Volcanic Ashes







- Airport Elevation : 510 ft


LJCE - Cerklje

CURRENT METAR :
  • 251930Z 04005KT 360V080 8000 RA OVC017 05/02 Q1018 RMK WHT

EXPIRED METARs :
  • 251900Z 06005KT 010V140 8000 SHRA VCTS FEW013 FEW025CB OVC030 05/03 Q1017 RMK BLU
  • 251830Z 07008KT 030V100 8000 -SHRA VCTS FEW013 FEW025CB BKN035 06/04 Q1016 RMK BLU
  • 251800Z 07011KT 030V100 9999 -SHRA VCTS FEW013 FEW025CB BKN035 06/04 Q1015 RMK BLU
  • 251730Z AUTO 05013KT 9999 -DZ OVC017/// 06/04 Q1013

TAF TAF LJCE
Valid from the 25 at 18:00 until the 26 at 03:00 UTC


251700Z 2518/2603 09005KT 7000 -RA SCT020 BKN035 OVC060
TEMPO 2518/2524 07010KT 4000 RA BR OVC020
No reported NOTAMs for that airfield.
2 SIGMETs reported for the Ljubljana FIR (LJLA) :
 
Embedded thunderstorms
LJLA SIGMET 8 VALID 252000/252100 LJLJ
LJLA LJUBLJANA FIR EMBD TS OBS N4533 E01339 TOP FL280 MOV SE 10KT NC=
Severe turbulence
LJLA SIGMET 7 VALID 252000/252100 LJLJ
LJLA LJUBLJANA FIR SEV TURB FCST WI N4525 E01405 - N4541 E01340 - N4555 E01355 - N4536 E01434 - N4526 E01428 - N4525 E01405 SFC/6000FT STNR NC=



MET'MAP, your aeronautical weather chart ! - Copyright ORBIFLY December 2007 - Disclaimer

ORBIFLY MET'MAP TEAM :

Programming & Development : Alexandra Zaïnal
Concept & Development : Baudouin d'Aumeries
Co-Development & Prog : Marc-Olivier Méhu
Technical & hardware support : Manuel Goepfert

Contact : metmap@orbifly.com




SOURCES & CREDITS :

   NOAA